createdAt,value
2019-04-01T00:01:07.660Z,99.90
2019-04-01T00:03:37.726Z,99.90
2019-04-01T00:06:06.547Z,99.90
2019-04-01T00:08:35.509Z,99.90
2019-04-01T00:11:04.339Z,99.90
2019-04-01T00:13:33.499Z,99.90
2019-04-01T00:16:02.801Z,99.90
2019-04-01T00:18:31.834Z,99.90
2019-04-01T00:21:00.625Z,99.90
2019-04-01T00:23:29.556Z,99.90
2019-04-01T00:25:58.657Z,99.90
2019-04-01T00:28:27.670Z,99.90
2019-04-01T00:30:56.562Z,99.90
2019-04-01T00:33:25.422Z,99.90
2019-04-01T00:35:54.215Z,99.90
2019-04-01T00:38:23.238Z,99.90
2019-04-01T00:40:52.128Z,99.90
2019-04-01T00:43:25.606Z,99.90
2019-04-01T00:45:56.055Z,99.90
2019-04-01T00:48:26.460Z,99.90
2019-04-01T00:50:55.478Z,99.90
2019-04-01T00:53:24.372Z,99.90
2019-04-01T00:55:53.263Z,99.90
2019-04-01T00:58:22.156Z,99.90
2019-04-01T01:00:51.015Z,99.90
2019-04-01T01:03:19.937Z,99.90
2019-04-01T01:05:49.725Z,99.90
2019-04-01T01:08:18.602Z,99.90
2019-04-01T01:10:47.639Z,99.90
2019-04-01T01:13:16.529Z,99.90
2019-04-01T01:15:45.628Z,99.90
2019-04-01T01:18:14.729Z,99.90
2019-04-01T01:20:43.703Z,99.90
2019-04-01T01:23:12.580Z,99.90
2019-04-01T01:25:43.040Z,99.90
2019-04-01T01:28:12.154Z,99.90
2019-04-01T01:30:41.025Z,99.90
2019-04-01T01:33:10.123Z,99.90
2019-04-01T01:35:39.014Z,99.90
2019-04-01T01:38:07.847Z,99.90
2019-04-01T01:40:36.769Z,99.90
2019-04-01T01:43:05.667Z,99.90
2019-04-01T01:45:34.564Z,99.90
2019-04-01T01:48:03.475Z,99.90
2019-04-01T01:50:32.213Z,99.90
2019-04-01T01:53:01.271Z,99.90
2019-04-01T01:55:30.230Z,99.90
2019-04-01T01:57:59.653Z,99.90
2019-04-01T02:00:29.576Z,99.90
2019-04-01T02:02:58.309Z,99.90
2019-04-01T02:05:27.234Z,99.90
2019-04-01T02:07:56.253Z,99.90
2019-04-01T02:10:25.347Z,99.90
2019-04-01T02:12:54.229Z,99.90
2019-04-01T02:15:22.998Z,99.90
2019-04-01T02:17:52.022Z,99.90
2019-04-01T02:20:20.996Z,99.90
2019-04-01T02:22:49.883Z,99.90
2019-04-01T02:25:18.697Z,99.90
2019-04-01T02:27:47.594Z,99.90
2019-04-01T02:30:16.467Z,99.90
2019-04-01T02:32:45.373Z,99.90
2019-04-01T02:35:14.155Z,99.90
2019-04-01T02:37:43.160Z,99.90
2019-04-01T02:40:12.080Z,99.90
2019-04-01T02:42:41.188Z,99.90
2019-04-01T02:45:10.053Z,99.90
2019-04-01T02:47:39.134Z,99.90
2019-04-01T02:50:08.441Z,99.90
2019-04-01T02:52:37.203Z,99.90
2019-04-01T02:55:07.426Z,99.90
2019-04-01T02:57:36.447Z,99.90
2019-04-01T03:00:07.054Z,99.90
2019-04-01T03:02:35.973Z,99.90
2019-04-01T03:05:05.590Z,99.90
2019-04-01T03:07:35.236Z,99.90
2019-04-01T03:10:06.124Z,99.90
2019-04-01T03:12:35.000Z,99.90
2019-04-01T03:15:04.822Z,99.90
2019-04-01T03:17:34.844Z,99.90
2019-04-01T03:20:04.569Z,99.90
2019-04-01T03:22:33.451Z,99.90
2019-04-01T03:25:02.345Z,99.90
2019-04-01T03:27:32.084Z,99.90
2019-04-01T03:30:00.850Z,99.90
2019-04-01T03:32:29.636Z,99.90
2019-04-01T03:34:59.738Z,99.90
2019-04-01T03:37:28.619Z,99.90
2019-04-01T03:39:57.538Z,99.90
2019-04-01T03:42:26.430Z,99.90
2019-04-01T03:44:55.647Z,99.90
2019-04-01T03:47:24.827Z,99.90
2019-04-01T03:49:53.925Z,99.90
2019-04-01T03:52:22.817Z,99.90
2019-04-01T03:54:51.577Z,99.90
2019-04-01T03:57:20.601Z,99.90
2019-04-01T03:59:49.697Z,99.90
2019-04-01T04:02:18.589Z,99.90
2019-04-01T04:04:47.457Z,99.90
2019-04-01T04:07:16.455Z,99.90
2019-04-01T04:09:45.471Z,99.90
2019-04-01T04:12:14.363Z,99.90
2019-04-01T04:14:43.254Z,99.90
2019-04-01T04:17:12.145Z,99.90
2019-04-01T04:19:41.016Z,99.90
2019-04-01T04:22:09.934Z,99.90
2019-04-01T04:24:38.798Z,99.90
2019-04-01T04:27:11.127Z,99.90
2019-04-01T04:29:38.213Z,99.90
2019-04-01T04:32:07.087Z,99.90
2019-04-01T04:34:36.219Z,99.90
2019-04-01T04:37:05.063Z,99.90
2019-04-01T04:39:33.901Z,99.90
2019-04-01T04:42:02.780Z,99.90
2019-04-01T04:44:31.800Z,99.90
2019-04-01T04:47:00.690Z,99.90
2019-04-01T04:49:29.650Z,99.90
2019-04-01T04:51:58.448Z,99.90
2019-04-01T04:54:27.415Z,99.90
2019-04-01T04:56:56.439Z,99.90
2019-04-01T04:59:25.353Z,99.90
2019-04-01T05:01:54.250Z,99.90
2019-04-01T05:04:23.115Z,99.90
2019-04-01T05:06:52.007Z,99.90
2019-04-01T05:09:21.127Z,99.90
2019-04-01T05:11:50.224Z,99.90
2019-04-01T05:14:19.197Z,99.90
2019-04-01T05:16:48.001Z,99.90
2019-04-01T05:19:16.906Z,99.90
2019-04-01T05:21:46.413Z,99.90
2019-04-01T05:24:15.913Z,99.90
2019-04-01T05:26:45.950Z,99.90
2019-04-01T05:29:15.828Z,99.90
2019-04-01T05:31:46.859Z,99.90
2019-04-01T05:34:17.627Z,99.90
2019-04-01T05:36:47.415Z,99.90
2019-04-01T05:39:16.814Z,99.90
2019-04-01T05:41:45.704Z,99.90
2019-04-01T05:44:15.031Z,99.90
2019-04-01T05:46:44.336Z,99.90
2019-04-01T05:49:13.121Z,99.90
2019-04-01T05:51:42.632Z,99.90
2019-04-01T05:54:11.525Z,99.90
2019-04-01T05:56:40.285Z,99.90
2019-04-01T05:59:09.280Z,99.90
2019-04-01T06:01:39.709Z,99.90
2019-04-01T06:04:08.621Z,99.90
2019-04-01T06:06:37.828Z,99.90
2019-04-01T06:09:08.453Z,99.90
2019-04-01T06:11:37.540Z,99.90
2019-04-01T06:14:07.450Z,99.90
2019-04-01T06:16:36.470Z,99.90
2019-04-01T06:19:06.063Z,99.90
2019-04-01T06:21:35.261Z,99.90
2019-04-01T06:24:04.542Z,99.90
2019-04-01T06:26:33.539Z,99.90
2019-04-01T06:29:02.573Z,99.90
2019-04-01T06:31:31.526Z,99.90
2019-04-01T06:34:00.428Z,99.90
2019-04-01T06:36:29.448Z,99.90
2019-04-01T06:38:58.337Z,99.90
2019-04-01T06:41:27.434Z,99.90
2019-04-01T06:43:56.301Z,99.90
2019-04-01T06:46:25.189Z,99.90
2019-04-01T06:48:54.952Z,99.90
2019-04-01T06:51:23.883Z,99.90
2019-04-01T06:53:52.788Z,99.90
2019-04-01T06:56:22.696Z,99.90
2019-04-01T06:58:51.519Z,99.90
2019-04-01T07:01:20.822Z,99.90
2019-04-01T07:03:49.714Z,99.90
2019-04-01T07:06:18.608Z,99.90
2019-04-01T07:08:47.992Z,99.90
2019-04-01T07:11:17.629Z,99.90
2019-04-01T07:13:46.510Z,99.90
2019-04-01T07:16:16.280Z,99.90
2019-04-01T07:18:45.427Z,99.90
2019-04-01T07:21:14.415Z,99.90
2019-04-01T07:23:43.306Z,99.90
2019-04-01T07:26:12.182Z,99.90
2019-04-01T07:28:41.276Z,99.90
2019-04-01T07:31:10.040Z,99.90
2019-04-01T07:33:38.845Z,99.90
2019-04-01T07:36:07.968Z,99.90
2019-04-01T07:38:36.718Z,99.90
2019-04-01T07:41:05.576Z,99.90
2019-04-01T07:43:34.411Z,99.90
2019-04-01T07:46:03.510Z,99.90
2019-04-01T07:48:32.571Z,99.90
2019-04-01T07:51:01.444Z,99.90
2019-04-01T07:53:30.425Z,99.90
2019-04-01T07:56:02.394Z,99.90
2019-04-01T07:58:30.264Z,99.90
2019-04-01T08:00:59.348Z,99.90
2019-04-01T08:03:28.211Z,99.90
2019-04-01T08:05:57.339Z,99.90
2019-04-01T08:08:26.231Z,99.90
2019-04-01T08:10:55.110Z,99.90
2019-04-01T08:13:24.015Z,99.90
2019-04-01T08:15:52.903Z,99.90
2019-04-01T08:18:21.834Z,99.90
2019-04-01T08:20:50.891Z,99.90
2019-04-01T08:23:19.769Z,99.90
2019-04-01T08:25:48.874Z,99.90
2019-04-01T08:28:19.071Z,99.90
2019-04-01T08:30:47.968Z,99.90
2019-04-01T08:33:17.104Z,99.10
2019-04-01T08:35:46.577Z,99.90
2019-04-01T08:38:15.473Z,99.90
2019-04-01T08:40:44.386Z,99.50
2019-04-01T08:43:13.484Z,98.10
2019-04-01T08:45:42.375Z,97.30
2019-04-01T08:48:11.474Z,98.00
2019-04-01T08:50:40.312Z,99.90
2019-04-01T08:53:09.256Z,99.90
2019-04-01T08:55:38.570Z,99.80
2019-04-01T08:58:07.654Z,98.20
2019-04-01T09:00:36.789Z,96.50
2019-04-01T09:03:05.655Z,96.30
2019-04-01T09:05:34.469Z,96.90
2019-04-01T09:08:03.404Z,96.10
2019-04-01T09:10:32.297Z,97.30
2019-04-01T09:13:01.558Z,97.00
2019-04-01T09:15:31.738Z,97.40
2019-04-01T09:18:00.637Z,97.90
2019-04-01T09:20:31.324Z,97.00
2019-04-01T09:23:00.257Z,97.30
2019-04-01T09:25:29.017Z,98.00
2019-04-01T09:27:57.916Z,98.30
2019-04-01T09:30:26.800Z,98.20
2019-04-01T09:32:55.824Z,98.50
2019-04-01T09:35:24.635Z,97.80
2019-04-01T09:37:53.478Z,96.70
2019-04-01T09:40:22.371Z,96.80
2019-04-01T09:42:52.350Z,97.00
2019-04-01T09:45:21.178Z,97.00
2019-04-01T09:47:50.303Z,96.20
2019-04-01T09:50:19.606Z,96.20
2019-04-01T09:52:48.496Z,95.50
2019-04-01T09:55:18.823Z,93.80
2019-04-01T09:57:47.716Z,93.60
2019-04-01T10:00:17.323Z,96.80
2019-04-01T10:02:46.184Z,95.60
2019-04-01T10:05:15.855Z,94.80
2019-04-01T10:07:44.849Z,95.20
2019-04-01T10:10:14.352Z,95.00
2019-04-01T10:12:43.318Z,95.30
2019-04-01T10:15:12.664Z,95.60
2019-04-01T10:17:41.719Z,96.00
2019-04-01T10:20:11.084Z,97.30
2019-04-01T10:22:40.565Z,98.10
2019-04-01T10:25:09.414Z,97.60
2019-04-01T10:27:38.523Z,97.50
2019-04-01T10:30:09.863Z,98.00
2019-04-01T10:32:38.738Z,96.90
2019-04-01T10:35:08.738Z,97.00
2019-04-01T10:37:37.642Z,96.40
2019-04-01T10:40:08.045Z,94.70
2019-04-01T10:42:36.972Z,96.20
2019-04-01T10:45:08.687Z,98.40
2019-04-01T10:47:37.649Z,98.50
2019-04-01T10:50:07.943Z,97.00
2019-04-01T10:52:36.876Z,95.80
2019-04-01T10:55:07.058Z,95.10
2019-04-01T10:57:35.914Z,95.10
2019-04-01T11:00:07.694Z,95.80
2019-04-01T11:02:36.541Z,96.60
2019-04-01T11:05:09.154Z,96.70
2019-04-01T11:07:37.989Z,97.00
2019-04-01T11:10:11.427Z,96.00
2019-04-01T11:12:39.642Z,94.70
2019-04-01T11:15:08.976Z,94.60
2019-04-01T11:17:37.835Z,93.80
2019-04-01T11:20:08.058Z,93.50
2019-04-01T11:22:37.212Z,94.20
2019-04-01T11:25:09.805Z,93.50
2019-04-01T11:27:38.637Z,93.10
2019-04-01T11:30:08.345Z,94.30
2019-04-01T11:32:39.364Z,96.10
2019-04-01T11:35:09.618Z,96.40
2019-04-01T11:37:38.625Z,94.00
2019-04-01T11:40:11.265Z,92.30
2019-04-01T11:42:40.878Z,92.50
2019-04-01T11:45:10.423Z,91.80
2019-04-01T11:47:39.350Z,91.30
2019-04-01T11:50:08.328Z,90.00
2019-04-01T11:52:38.134Z,90.40
2019-04-01T11:55:09.041Z,91.60
2019-04-01T11:57:38.822Z,92.80
2019-04-01T12:00:13.257Z,90.00
2019-04-01T12:02:42.797Z,88.30
2019-04-01T12:05:11.689Z,89.90
2019-04-01T12:07:40.584Z,92.60
2019-04-01T12:10:09.970Z,93.20
2019-04-01T12:12:38.847Z,93.50
2019-04-01T12:15:11.675Z,93.80
2019-04-01T12:17:41.584Z,94.10
2019-04-01T12:20:10.058Z,93.50
2019-04-01T12:22:40.576Z,93.70
2019-04-01T12:25:09.703Z,92.80
2019-04-01T12:27:38.677Z,91.60
2019-04-01T12:30:07.574Z,90.70
2019-04-01T12:32:38.083Z,88.70
2019-04-01T12:35:07.607Z,90.10
2019-04-01T12:37:36.455Z,91.00
2019-04-01T12:40:07.336Z,88.80
2019-04-01T12:42:36.438Z,90.00
2019-04-01T12:45:06.982Z,90.20
2019-04-01T12:47:36.267Z,86.90
2019-04-01T12:50:06.853Z,86.70
2019-04-01T12:52:35.890Z,89.50
2019-04-01T12:57:48.403Z,92.30
2019-04-01T13:00:17.679Z,89.70
2019-04-01T13:02:46.615Z,87.20
2019-04-01T13:05:15.382Z,87.50
2019-04-01T13:07:44.284Z,89.20
2019-04-01T13:10:13.173Z,88.90
2019-04-01T13:12:41.980Z,86.90
2019-04-01T13:15:12.457Z,87.00
2019-04-01T13:17:41.814Z,87.80
2019-04-01T13:20:10.908Z,85.10
2019-04-01T13:22:39.792Z,82.10
2019-04-01T13:25:09.309Z,83.60
2019-04-01T13:27:38.196Z,83.40
2019-04-01T13:30:08.077Z,88.20
2019-04-01T13:32:37.004Z,88.40
2019-04-01T13:35:07.131Z,91.10
2019-04-01T13:37:36.018Z,88.10
2019-04-01T13:40:05.731Z,86.40
2019-04-01T13:42:34.604Z,83.30
2019-04-01T13:45:03.641Z,85.20
2019-04-01T13:47:33.634Z,89.50
2019-04-01T13:50:03.754Z,87.90
2019-04-01T13:52:33.104Z,87.10
2019-04-01T13:55:02.359Z,85.50
2019-04-01T13:57:31.233Z,87.70
2019-04-01T14:00:00.343Z,86.40
2019-04-01T14:02:31.025Z,86.00
2019-04-01T14:04:59.796Z,84.30
2019-04-01T14:07:28.862Z,85.60
2019-04-01T14:09:57.972Z,87.60
2019-04-01T14:12:27.060Z,90.60
2019-04-01T14:14:56.158Z,91.70
2019-04-01T14:17:25.021Z,91.30
2019-04-01T14:19:53.934Z,90.60
2019-04-01T14:22:23.557Z,91.90
2019-04-01T14:24:52.455Z,90.60
2019-04-01T14:27:21.325Z,88.70
2019-04-01T14:29:50.207Z,86.80
2019-04-01T14:32:19.169Z,86.90
2019-04-01T14:34:50.370Z,85.50
2019-04-01T14:37:25.609Z,86.00
2019-04-01T14:39:50.474Z,90.40
2019-04-01T14:42:19.358Z,90.00
2019-04-01T14:44:58.940Z,90.30
2019-04-01T14:47:28.338Z,91.80
2019-04-01T14:49:57.439Z,92.30
2019-04-01T14:52:32.612Z,93.10
2019-04-01T14:54:57.267Z,93.70
2019-04-01T14:57:26.424Z,95.00
2019-04-01T14:59:56.298Z,94.20
2019-04-01T15:02:25.582Z,93.60
2019-04-01T15:04:54.680Z,94.00
2019-04-01T15:07:23.774Z,94.10
2019-04-01T15:09:52.873Z,94.60
2019-04-01T15:12:21.973Z,94.50
2019-04-01T15:14:51.065Z,94.30
2019-04-01T15:17:20.166Z,92.70
2019-04-01T15:19:49.260Z,93.40
2019-04-01T15:22:18.561Z,91.80
2019-04-01T15:24:47.656Z,90.90
2019-04-01T15:27:16.764Z,91.40
2019-04-01T15:29:45.854Z,92.10
2019-04-01T15:32:14.899Z,93.70
2019-04-01T15:34:44.070Z,94.50
2019-04-01T15:37:13.143Z,93.90
2019-04-01T15:39:42.240Z,94.60
2019-04-01T15:42:11.336Z,93.90
2019-04-01T15:44:41.254Z,95.20
2019-04-01T15:47:11.984Z,95.20
2019-04-01T15:49:41.411Z,94.60
2019-04-01T15:52:10.590Z,94.10
2019-04-01T15:54:39.699Z,94.30
2019-04-01T15:57:10.754Z,93.20
2019-04-01T15:59:39.929Z,93.70
2019-04-01T16:02:09.399Z,93.80
2019-04-01T16:04:38.531Z,93.60
2019-04-01T16:07:07.841Z,94.20
2019-04-01T16:09:36.768Z,95.10
2019-04-01T16:12:05.924Z,94.80
2019-04-01T16:14:34.956Z,93.80
2019-04-01T16:17:05.191Z,93.90
2019-04-01T16:19:34.376Z,94.50
2019-04-01T16:22:03.590Z,94.50
2019-04-01T16:24:33.050Z,95.00
2019-04-01T16:27:04.477Z,94.90
2019-04-01T16:29:33.698Z,94.70
2019-04-01T16:32:02.799Z,95.40
2019-04-01T16:34:31.991Z,95.70
2019-04-01T16:37:00.949Z,95.90
2019-04-01T16:39:30.279Z,95.30
2019-04-01T16:41:59.493Z,95.10
2019-04-01T16:44:29.501Z,95.80
2019-04-01T16:46:58.627Z,95.30
2019-04-01T16:49:29.236Z,95.70
2019-04-01T16:51:58.209Z,95.80
2019-04-01T16:54:27.431Z,96.40
2019-04-01T16:56:56.526Z,96.70
2019-04-01T16:59:25.827Z,96.90
2019-04-01T17:01:57.587Z,97.00
2019-04-01T17:04:25.585Z,97.20
2019-04-01T17:06:54.966Z,97.50
2019-04-01T17:09:24.126Z,97.60
2019-04-01T17:11:54.794Z,98.50
2019-04-01T17:14:24.439Z,98.10
2019-04-01T17:16:54.014Z,98.30
2019-04-01T17:19:23.310Z,98.40
2019-04-01T17:21:52.613Z,99.20
2019-04-01T17:24:21.915Z,99.20
2019-04-01T17:27:05.667Z,99.40
2019-04-01T17:29:34.717Z,99.80
2019-04-01T17:32:04.194Z,99.70
2019-04-01T17:34:33.258Z,99.90
2019-04-01T17:37:02.574Z,99.90
2019-04-01T17:39:31.654Z,99.90
2019-04-01T17:42:00.777Z,99.90
2019-04-01T17:44:30.051Z,99.90
2019-04-01T17:46:59.350Z,99.90
2019-04-01T17:49:30.239Z,99.90
2019-04-01T17:52:00.216Z,99.90
2019-04-01T17:54:30.742Z,99.90
2019-04-01T17:57:01.194Z,99.90
2019-04-01T17:59:30.377Z,99.90
2019-04-01T18:02:13.390Z,99.90
2019-04-01T18:04:42.657Z,99.90
2019-04-01T18:07:14.655Z,99.90
2019-04-01T18:09:44.187Z,99.90
2019-04-01T18:12:14.614Z,99.90
2019-04-01T18:14:44.798Z,99.90
2019-04-01T18:17:14.027Z,99.90
2019-04-01T18:19:43.517Z,99.90
2019-04-01T18:22:12.822Z,99.90
2019-04-01T18:24:42.317Z,99.90
2019-04-01T18:27:15.124Z,99.90
2019-04-01T18:29:46.175Z,99.90
2019-04-01T18:32:15.348Z,99.90
2019-04-01T18:34:44.652Z,99.90
2019-04-01T18:37:14.130Z,99.90
2019-04-01T18:39:48.401Z,99.90
2019-04-01T18:42:14.194Z,99.90
2019-04-01T18:44:43.478Z,99.90
2019-04-01T18:47:12.632Z,99.90
2019-04-01T18:49:41.894Z,99.90
2019-04-01T18:52:10.991Z,99.90
2019-04-01T18:54:40.601Z,99.90
2019-04-01T18:57:12.693Z,99.90
2019-04-01T18:59:43.303Z,99.90
2019-04-01T19:02:15.190Z,99.90
2019-04-01T19:04:45.589Z,99.90
2019-04-01T19:07:17.762Z,99.90
2019-04-01T19:09:47.067Z,99.90
2019-04-01T19:12:16.451Z,99.90
2019-04-01T19:14:45.909Z,99.90
2019-04-01T19:17:15.577Z,99.90
2019-04-01T19:19:48.603Z,99.90
2019-04-01T19:22:18.484Z,99.90
2019-04-01T19:24:47.782Z,99.90
2019-04-01T19:27:18.411Z,99.90
2019-04-01T19:29:47.615Z,99.90
2019-04-01T19:32:17.129Z,99.90
2019-04-01T19:34:46.333Z,99.90
2019-04-01T19:37:18.065Z,99.90
2019-04-01T19:39:46.461Z,99.90
2019-04-01T19:42:15.556Z,99.90
2019-04-01T19:44:45.159Z,99.90
2019-04-01T19:47:14.367Z,99.90
2019-04-01T19:49:43.553Z,99.90
2019-04-01T19:52:12.762Z,99.90
2019-04-01T19:54:41.860Z,99.90
2019-04-01T19:57:11.399Z,99.90
2019-04-01T19:59:40.803Z,99.90
2019-04-01T20:02:10.379Z,99.90
2019-04-01T20:04:40.163Z,99.90
2019-04-01T20:07:09.226Z,99.90
2019-04-01T20:09:38.227Z,99.90
2019-04-01T20:12:07.787Z,99.90
2019-04-01T20:14:37.295Z,99.90
2019-04-01T20:17:06.617Z,99.90
2019-04-01T20:19:35.827Z,99.90
2019-04-01T20:22:05.137Z,99.90
2019-04-01T20:24:34.168Z,99.90
2019-04-01T20:27:03.241Z,99.90
2019-04-01T20:29:33.105Z,99.90
2019-04-01T20:32:16.294Z,99.90
2019-04-01T20:34:34.165Z,99.90
2019-04-01T20:37:03.117Z,99.90
2019-04-01T20:39:32.160Z,99.90
2019-04-01T20:42:01.254Z,99.90
2019-04-01T20:44:30.553Z,99.90
2019-04-01T20:46:59.574Z,99.90
2019-04-01T20:49:29.358Z,99.90
2019-04-01T20:51:59.481Z,99.90
2019-04-01T20:54:28.578Z,99.90
2019-04-01T20:56:57.806Z,99.90
2019-04-01T20:59:27.386Z,99.90
2019-04-01T21:01:56.488Z,99.90
2019-04-01T21:04:26.949Z,99.90
2019-04-01T21:06:56.228Z,99.90
2019-04-01T21:09:25.412Z,99.90
2019-04-01T21:11:54.612Z,99.90
2019-04-01T21:14:23.922Z,99.90
2019-04-01T21:16:52.804Z,99.90
2019-04-01T21:19:21.903Z,99.90
2019-04-01T21:21:50.763Z,99.90
2019-04-01T21:24:19.890Z,99.90
2019-04-01T21:26:49.063Z,99.90
2019-04-01T21:29:18.083Z,99.90
2019-04-01T21:31:47.159Z,99.90
2019-04-01T21:34:17.101Z,99.90
2019-04-01T21:36:45.988Z,99.90
2019-04-01T21:39:14.879Z,99.90
2019-04-01T21:41:43.771Z,99.90
2019-04-01T21:44:12.637Z,99.90
2019-04-01T21:46:43.008Z,99.90
2019-04-01T21:49:12.361Z,99.90
2019-04-01T21:51:42.225Z,99.90
2019-04-01T21:54:11.099Z,99.90
2019-04-01T21:56:40.201Z,99.90
2019-04-01T21:59:09.088Z,99.90
2019-04-01T22:01:38.182Z,99.90
2019-04-01T22:04:07.153Z,99.90
2019-04-01T22:06:36.171Z,99.90
2019-04-01T22:09:08.868Z,99.90
2019-04-01T22:11:37.735Z,99.90
2019-04-01T22:14:06.744Z,99.90
2019-04-01T22:16:35.839Z,99.90
2019-04-01T22:19:04.649Z,99.90
2019-04-01T22:21:34.714Z,99.90
2019-04-01T22:24:04.276Z,99.90
2019-04-01T22:26:33.449Z,99.90
2019-04-01T22:29:02.571Z,99.90
2019-04-01T22:31:31.389Z,99.90
2019-04-01T22:34:00.332Z,99.90
2019-04-01T22:36:31.283Z,99.90
2019-04-01T22:38:59.725Z,99.90
2019-04-01T22:41:29.919Z,99.90
2019-04-01T22:43:58.955Z,99.90
2019-04-01T22:46:27.862Z,99.90
2019-04-01T22:48:56.757Z,99.90
2019-04-01T22:51:25.646Z,99.90
2019-04-01T22:53:54.542Z,99.90
2019-04-01T22:56:23.638Z,99.90
2019-04-01T22:58:52.534Z,99.90
2019-04-01T23:01:21.418Z,99.90
2019-04-01T23:03:50.310Z,99.90
2019-04-01T23:06:19.279Z,99.90
2019-04-01T23:08:48.304Z,99.90
2019-04-01T23:11:17.178Z,99.90
2019-04-01T23:13:46.057Z,99.90
2019-04-01T23:16:14.976Z,99.90
2019-04-01T23:18:43.813Z,99.90
2019-04-01T23:21:13.722Z,99.90
2019-04-01T23:23:42.881Z,99.90
2019-04-01T23:26:11.733Z,99.90
2019-04-01T23:28:40.877Z,99.90
2019-04-01T23:31:09.763Z,99.90
2019-04-01T23:33:38.622Z,99.90
2019-04-01T23:36:07.546Z,99.90
2019-04-01T23:38:36.666Z,99.90
2019-04-01T23:41:07.550Z,99.90
2019-04-01T23:43:36.479Z,99.90
2019-04-01T23:46:05.309Z,99.90
2019-04-01T23:48:34.170Z,99.90
2019-04-01T23:51:02.961Z,99.90
2019-04-01T23:53:31.835Z,99.90
2019-04-01T23:56:00.934Z,99.90
2019-04-01T23:58:29.823Z,99.90
